Rhame, North Dakota
Current Conditions -  °F | °C
As of 6:51 PM on Saturday 22 Nov 2014 (Local Time) from KBHK Reporting Station
Overcast Overcast  
Wind Chill: 34°   Ceiling: 9000
Heat Index: 43°   Visibility: 10mi
Dew Point: 32°   Wind: 20mph
Humidity: 65%   Direction: 250°WSW
Pressure: 29.39"   Gusts: 28mph
Location:  46.23°N, 103.66°W
Report Text: KBHK 230151Z AUTO 25017G24KT 10SM SCT070 BKN090 OVC100 06/00 A2939 RMK AO2 SLP966 T00610000
Loading
Personal Weather Stations






























Interactive Weather Map New forecast layout! Learn more

10-Day Weather Forecast

Advertisements
Track Severe Weather on mobile